createdAt,value
2023-02-01T00:00:36.123Z,1.95
2023-02-01T00:01:36.108Z,1.94
2023-02-01T00:02:36.160Z,1.97
2023-02-01T00:03:36.099Z,1.91
2023-02-01T00:04:36.050Z,2.06
2023-02-01T00:05:37.052Z,1.89
2023-02-01T00:06:36.061Z,1.95
2023-02-01T00:07:36.066Z,1.92
2023-02-01T00:08:36.050Z,1.92
2023-02-01T00:10:22.884Z,1.84
2023-02-01T00:11:22.605Z,1.85
2023-02-01T00:12:22.594Z,1.77
2023-02-01T00:13:22.594Z,1.78
2023-02-01T00:14:23.717Z,1.84
2023-02-01T00:15:23.707Z,1.76
2023-02-01T00:16:23.707Z,1.68
2023-02-01T00:17:23.693Z,1.76
2023-02-01T00:18:23.694Z,1.74
2023-02-01T00:19:23.661Z,1.71
2023-02-01T00:20:23.826Z,1.73
2023-02-01T00:21:23.671Z,1.71
2023-02-01T00:22:23.645Z,1.68
2023-02-01T00:23:23.678Z,1.77
2023-02-01T00:24:23.622Z,1.78
2023-02-01T00:25:23.633Z,1.87
2023-02-01T00:26:23.683Z,1.89
2023-02-01T00:27:23.604Z,2.10
2023-02-01T00:28:23.624Z,2.22
2023-02-01T00:29:23.651Z,2.14
2023-02-01T00:30:23.992Z,2.17
2023-02-01T00:31:23.650Z,2.13
2023-02-01T00:32:23.586Z,2.24
2023-02-01T00:33:24.632Z,2.22
2023-02-01T00:34:23.575Z,2.26
2023-02-01T00:35:23.550Z,2.32
2023-02-01T00:36:23.545Z,2.32
2023-02-01T00:37:23.577Z,2.33
2023-02-01T00:38:23.549Z,2.39
2023-02-01T00:39:23.560Z,2.46
2023-02-01T00:40:23.882Z,2.35
2023-02-01T00:41:23.518Z,2.51
2023-02-01T00:42:23.508Z,2.43
2023-02-01T00:43:23.501Z,2.53
2023-02-01T00:44:23.511Z,2.49
2023-02-01T00:45:23.474Z,2.53
2023-02-01T00:46:23.551Z,2.44
2023-02-01T00:47:23.479Z,2.49
2023-02-01T00:48:23.477Z,2.50
2023-02-01T00:49:23.458Z,2.51
2023-02-01T00:50:23.701Z,2.60
2023-02-01T00:51:23.461Z,2.57
2023-02-01T00:52:23.439Z,2.64
2023-02-01T00:53:23.431Z,2.61
2023-02-01T00:54:23.423Z,2.77
2023-02-01T00:55:23.423Z,2.77
2023-02-01T00:56:23.419Z,2.89
2023-02-01T00:57:23.406Z,2.98
2023-02-01T00:58:25.152Z,3.05
2023-02-01T00:59:23.393Z,3.05
2023-02-01T01:00:23.734Z,3.10
2023-02-01T01:01:23.371Z,3.25
2023-02-01T01:02:23.423Z,3.28
2023-02-01T01:03:23.421Z,3.25
2023-02-01T01:04:23.359Z,3.26
2023-02-01T01:05:23.330Z,3.47
2023-02-01T01:06:23.331Z,3.44
2023-02-01T01:07:23.315Z,3.47
2023-02-01T01:08:23.299Z,3.53
2023-02-01T01:09:23.299Z,3.55
2023-02-01T01:10:23.694Z,3.53
2023-02-01T01:11:23.293Z,3.59
2023-02-01T01:12:23.358Z,3.66
2023-02-01T01:13:23.295Z,3.66
2023-02-01T01:14:23.283Z,3.74
2023-02-01T01:15:23.280Z,3.68
2023-02-01T01:16:23.326Z,3.83
2023-02-01T01:17:23.268Z,3.88
2023-02-01T01:18:23.253Z,3.84
2023-02-01T01:19:23.252Z,3.81
2023-02-01T01:20:23.525Z,3.96
2023-02-01T01:21:23.247Z,3.98
2023-02-01T01:22:23.187Z,4.02
2023-02-01T01:23:23.190Z,4.04
2023-02-01T01:24:23.204Z,4.08
2023-02-01T01:25:23.199Z,4.06
2023-02-01T01:26:23.196Z,4.05
2023-02-01T01:27:23.177Z,4.06
2023-02-01T01:28:23.138Z,4.01
2023-02-01T01:29:24.173Z,4.05
2023-02-01T01:30:23.519Z,4.12
2023-02-01T01:31:23.175Z,4.19
2023-02-01T01:32:23.104Z,4.14
2023-02-01T01:33:23.121Z,4.04
2023-02-01T01:34:23.120Z,4.12
2023-02-01T01:35:23.106Z,4.12
2023-02-01T01:36:23.080Z,4.06
2023-02-01T01:37:23.112Z,4.16
2023-02-01T01:38:23.060Z,4.13
2023-02-01T01:39:23.062Z,4.17
2023-02-01T01:40:23.323Z,4.13
2023-02-01T01:41:23.053Z,4.12
2023-02-01T01:42:23.037Z,4.19
2023-02-01T01:43:23.043Z,4.17
2023-02-01T01:44:23.054Z,4.12
2023-02-01T01:45:23.052Z,4.17
2023-02-01T01:46:23.857Z,4.13
2023-02-01T01:47:23.016Z,4.19
2023-02-01T01:48:23.006Z,4.20
2023-02-01T01:49:22.979Z,4.14
2023-02-01T01:50:23.360Z,4.22
2023-02-01T01:51:22.996Z,4.22
2023-02-01T01:52:22.961Z,4.22
2023-02-01T01:53:23.029Z,4.34
2023-02-01T01:54:22.959Z,4.26
2023-02-01T01:55:22.969Z,4.32
2023-02-01T01:56:22.931Z,4.30
2023-02-01T01:57:23.025Z,4.28
2023-02-01T01:58:22.917Z,4.24
2023-02-01T01:59:22.901Z,4.35
2023-02-01T02:00:23.199Z,4.35
2023-02-01T02:01:22.924Z,4.30
2023-02-01T02:02:22.953Z,4.26
2023-02-01T02:03:22.870Z,4.37
2023-02-01T02:04:22.853Z,4.31
2023-02-01T02:05:22.877Z,4.23
2023-02-01T02:06:22.900Z,4.35
2023-02-01T02:07:22.843Z,4.34
2023-02-01T02:08:22.843Z,4.24
2023-02-01T02:09:22.823Z,4.26
2023-02-01T02:10:23.244Z,4.34
2023-02-01T02:11:22.845Z,4.37
2023-02-01T02:12:22.819Z,4.42
2023-02-01T02:13:22.780Z,4.23
2023-02-01T02:14:22.796Z,4.40
2023-02-01T02:15:22.785Z,4.34
2023-02-01T02:16:22.797Z,4.32
2023-02-01T02:17:22.784Z,4.28
2023-02-01T02:18:22.767Z,4.38
2023-02-01T02:19:22.748Z,4.38
2023-02-01T02:20:23.137Z,4.28
2023-02-01T02:21:22.746Z,4.37
2023-02-01T02:22:22.766Z,4.48
2023-02-01T02:23:22.722Z,4.50
2023-02-01T02:24:22.738Z,4.44
2023-02-01T02:25:22.749Z,4.42
2023-02-01T02:26:22.718Z,4.42
2023-02-01T02:27:22.691Z,4.44
2023-02-01T02:28:22.692Z,4.44
2023-02-01T02:29:22.679Z,4.41
2023-02-01T02:30:23.054Z,4.38
2023-02-01T02:31:22.686Z,4.45
2023-02-01T02:32:22.638Z,4.37
2023-02-01T02:33:22.648Z,4.38
2023-02-01T02:34:22.661Z,4.44
2023-02-01T02:35:22.640Z,4.38
2023-02-01T02:36:23.407Z,4.37
2023-02-01T02:37:22.606Z,4.44
2023-02-01T02:38:22.611Z,4.35
2023-02-01T02:39:22.628Z,4.32
2023-02-01T02:40:23.192Z,4.40
2023-02-01T02:41:22.584Z,4.41
2023-02-01T02:42:22.564Z,4.40
2023-02-01T02:43:22.603Z,4.30
2023-02-01T02:44:22.599Z,4.28
2023-02-01T02:45:22.566Z,4.37
2023-02-01T02:46:22.568Z,4.37
2023-02-01T02:47:22.538Z,4.42
2023-02-01T02:48:22.546Z,4.32
2023-02-01T02:49:22.514Z,4.34
2023-02-01T02:50:54.456Z,4.30
2023-02-01T02:51:22.557Z,4.26
2023-02-01T02:52:22.593Z,4.28
2023-02-01T02:53:22.507Z,4.32
2023-02-01T02:54:22.495Z,4.41
2023-02-01T02:55:22.559Z,4.38
2023-02-01T02:56:22.488Z,4.34
2023-02-01T02:57:22.504Z,4.41
2023-02-01T02:58:22.481Z,4.40
2023-02-01T02:59:22.449Z,4.45
2023-02-01T03:00:22.861Z,4.37
2023-02-01T03:01:22.509Z,4.48
2023-02-01T03:02:22.464Z,4.41
2023-02-01T03:03:22.456Z,4.40
2023-02-01T03:04:22.407Z,4.45
2023-02-01T03:05:22.433Z,4.52
2023-02-01T03:06:22.416Z,4.49
2023-02-01T03:07:22.426Z,4.42
2023-02-01T03:08:22.419Z,4.40
2023-02-01T03:09:22.365Z,4.34
2023-02-01T03:10:22.654Z,4.37
2023-02-01T03:11:22.356Z,4.41
2023-02-01T03:12:22.402Z,4.45
2023-02-01T03:13:22.403Z,4.50
2023-02-01T03:14:22.360Z,4.42
2023-02-01T03:15:22.349Z,4.58
2023-02-01T03:16:22.383Z,4.44
2023-02-01T03:17:22.368Z,4.56
2023-02-01T03:18:22.354Z,4.59
2023-02-01T03:19:22.326Z,4.56
2023-02-01T03:20:22.577Z,4.70
2023-02-01T03:21:22.341Z,4.60
2023-02-01T03:22:22.298Z,4.52
2023-02-01T03:23:22.261Z,4.59
2023-02-01T03:24:22.281Z,4.66
2023-02-01T03:25:22.301Z,4.70
2023-02-01T03:26:22.292Z,4.71
2023-02-01T03:27:22.302Z,4.71
2023-02-01T03:28:22.247Z,4.60
2023-02-01T03:29:22.272Z,4.73
2023-02-01T03:30:22.613Z,4.67
2023-02-01T03:31:22.257Z,4.70
2023-02-01T03:32:22.212Z,4.68
2023-02-01T03:33:23.418Z,4.68
2023-02-01T03:34:22.175Z,4.62
2023-02-01T03:35:22.167Z,4.74
2023-02-01T03:36:22.165Z,4.66
2023-02-01T03:37:22.205Z,4.71
2023-02-01T03:38:22.233Z,4.68
2023-02-01T03:39:22.171Z,4.71
2023-02-01T03:40:22.466Z,4.73
2023-02-01T03:41:22.157Z,4.63
2023-02-01T03:42:22.156Z,4.74
2023-02-01T03:43:22.200Z,4.68
2023-02-01T03:44:22.120Z,4.78
2023-02-01T03:45:22.133Z,4.77
2023-02-01T03:46:22.103Z,4.82
2023-02-01T04:02:43.885Z,4.77
2023-02-01T04:03:43.769Z,4.75
2023-02-01T04:04:43.818Z,4.58
2023-02-01T04:05:43.781Z,4.74
2023-02-01T04:06:44.940Z,4.68
2023-02-01T04:07:44.862Z,4.77
2023-02-01T04:08:44.861Z,4.75
2023-02-01T04:09:44.846Z,4.86
2023-02-01T04:10:44.898Z,4.74
2023-02-01T04:11:44.851Z,4.78
2023-02-01T04:12:44.835Z,4.80
2023-02-01T04:13:44.821Z,4.90
2023-02-01T04:14:44.837Z,4.90
2023-02-01T04:15:44.829Z,4.86
2023-02-01T04:16:44.828Z,4.89
2023-02-01T04:17:44.851Z,4.82
2023-02-01T04:18:44.801Z,4.75
2023-02-01T04:19:44.798Z,4.77
2023-02-01T04:20:44.781Z,4.84
2023-02-01T04:21:44.793Z,4.75
2023-02-01T04:22:44.807Z,4.75
2023-02-01T04:23:44.743Z,4.90
2023-02-01T04:24:44.745Z,4.74
2023-02-01T04:25:44.737Z,4.68
2023-02-01T04:26:44.772Z,4.80
2023-02-01T04:27:44.773Z,4.74
2023-02-01T04:28:44.713Z,4.71
2023-02-01T04:29:44.727Z,4.66
2023-02-01T04:30:44.805Z,4.73
2023-02-01T04:31:44.855Z,4.70
2023-02-01T04:32:44.703Z,4.68
2023-02-01T04:33:44.718Z,4.68
2023-02-01T04:34:44.762Z,4.53
2023-02-01T04:35:44.673Z,4.59
2023-02-01T04:36:47.232Z,4.56
2023-02-01T04:37:45.661Z,4.52
2023-02-01T04:38:44.691Z,4.58
2023-02-01T04:39:44.658Z,4.53
2023-02-01T04:40:44.692Z,4.45
2023-02-01T04:41:44.593Z,4.38
2023-02-01T04:42:44.614Z,4.42
2023-02-01T04:43:44.599Z,4.31
2023-02-01T04:44:44.604Z,4.41
2023-02-01T04:45:44.663Z,4.35
2023-02-01T04:46:44.601Z,4.41
2023-02-01T04:47:44.560Z,4.48
2023-02-01T04:48:44.548Z,4.45
2023-02-01T04:49:44.551Z,4.34
2023-02-01T04:50:44.553Z,4.30
2023-02-01T04:51:44.536Z,4.41
2023-02-01T04:52:44.528Z,4.45
2023-02-01T04:53:44.536Z,4.40
2023-02-01T04:54:44.540Z,4.44
2023-02-01T04:55:44.637Z,4.45
2023-02-01T04:56:44.485Z,4.48
2023-02-01T04:57:44.518Z,4.40
2023-02-01T04:58:44.474Z,4.41
2023-02-01T04:59:44.487Z,4.40
2023-02-01T05:00:44.489Z,4.45
2023-02-01T05:01:44.472Z,4.41
2023-02-01T05:02:44.504Z,4.48
2023-02-01T05:03:44.447Z,4.41
2023-02-01T05:04:44.507Z,4.42
2023-02-01T05:05:44.446Z,4.41
2023-02-01T05:06:45.372Z,4.48
2023-02-01T05:07:44.384Z,4.60
2023-02-01T05:08:45.421Z,4.53
2023-02-01T05:09:44.418Z,4.55
2023-02-01T05:10:44.377Z,4.58
2023-02-01T05:11:44.439Z,4.56
2023-02-01T05:12:44.379Z,4.63
2023-02-01T05:13:44.380Z,4.70
2023-02-01T05:14:44.357Z,4.78
2023-02-01T05:15:44.359Z,4.70
2023-02-01T05:16:44.364Z,4.73
2023-02-01T05:17:44.327Z,4.75
2023-02-01T05:18:44.321Z,4.70
2023-02-01T05:19:44.891Z,4.77
2023-02-01T05:20:44.356Z,4.96
2023-02-01T05:21:44.312Z,5.14
2023-02-01T05:22:45.302Z,5.17
2023-02-01T05:23:44.311Z,5.17
2023-02-01T05:24:44.284Z,5.11
2023-02-01T05:25:44.299Z,5.08
2023-02-01T05:26:44.322Z,5.11
2023-02-01T05:27:44.272Z,5.02
2023-02-01T05:28:44.238Z,5.14
2023-02-01T05:29:44.232Z,5.07
2023-02-01T05:30:44.351Z,5.12
2023-02-01T05:31:44.297Z,5.02
2023-02-01T05:32:44.309Z,5.00
2023-02-01T05:33:44.227Z,5.04
2023-02-01T05:34:44.235Z,4.96
2023-02-01T05:35:44.187Z,5.00
2023-02-01T05:36:44.206Z,5.05
2023-02-01T05:37:44.185Z,5.04
2023-02-01T05:38:44.189Z,5.02
2023-02-01T05:39:44.236Z,4.99
2023-02-01T05:40:44.158Z,4.97
2023-02-01T05:41:44.192Z,4.80
2023-02-01T05:42:44.137Z,4.77
2023-02-01T05:43:44.158Z,4.75
2023-02-01T05:44:45.143Z,4.71
2023-02-01T05:45:44.160Z,4.80
2023-02-01T05:46:44.138Z,4.84
2023-02-01T05:47:44.097Z,4.84
2023-02-01T05:48:44.104Z,4.73
2023-02-01T05:49:44.130Z,4.84
2023-02-01T05:50:44.133Z,4.77
2023-02-01T05:51:44.089Z,4.68
2023-02-01T05:52:44.067Z,4.77
2023-02-01T05:53:44.050Z,4.56
2023-02-01T05:54:44.144Z,4.70
2023-02-01T05:55:44.099Z,4.71
2023-02-01T05:56:44.059Z,4.71
2023-02-01T05:57:44.023Z,4.66
2023-02-01T05:58:44.007Z,4.71
2023-02-01T05:59:44.035Z,4.87
2023-02-01T06:00:44.015Z,4.70
2023-02-01T06:01:44.065Z,4.73
2023-02-01T06:02:44.030Z,4.73
2023-02-01T06:03:44.042Z,4.77
2023-02-01T06:04:43.999Z,4.78
2023-02-01T06:05:43.987Z,4.68
2023-02-01T06:06:43.955Z,4.71
2023-02-01T06:07:43.951Z,4.77
2023-02-01T06:08:43.999Z,4.74
2023-02-01T06:09:43.925Z,4.73
2023-02-01T06:10:43.911Z,4.71
2023-02-01T06:11:43.965Z,4.73
2023-02-01T06:12:43.924Z,4.70
2023-02-01T06:14:50.515Z,4.75
2023-02-01T06:15:50.572Z,4.66
2023-02-01T06:16:50.528Z,4.70
2023-02-01T06:17:50.479Z,4.68
2023-02-01T06:18:50.502Z,4.71
2023-02-01T06:19:50.496Z,4.70
2023-02-01T06:20:50.469Z,4.67
2023-02-01T06:21:51.622Z,4.66
2023-02-01T06:22:51.572Z,4.84
2023-02-01T06:23:51.658Z,4.82
2023-02-01T06:24:51.571Z,4.75
2023-02-01T06:25:51.559Z,4.71
2023-02-01T06:26:51.571Z,4.86
2023-02-01T06:27:51.604Z,4.75
2023-02-01T06:28:51.544Z,4.75
2023-02-01T06:29:51.557Z,4.63
2023-02-01T06:30:51.549Z,4.71
2023-02-01T06:31:51.573Z,4.63
2023-02-01T06:32:51.596Z,4.70
2023-02-01T06:33:51.521Z,4.84
2023-02-01T06:34:51.514Z,4.68
2023-02-01T06:35:51.486Z,4.71
2023-02-01T06:36:51.489Z,4.77
2023-02-01T06:37:51.470Z,4.74
2023-02-01T06:38:51.504Z,4.73
2023-02-01T06:39:51.477Z,4.71
2023-02-01T06:40:51.452Z,4.86
2023-02-01T06:41:51.447Z,4.80
2023-02-01T06:42:51.440Z,4.74
2023-02-01T06:43:51.444Z,4.74
2023-02-01T06:44:52.182Z,4.80
2023-02-01T06:45:51.415Z,4.73
2023-02-01T06:46:51.440Z,4.82
2023-02-01T06:47:51.431Z,4.94
2023-02-01T06:48:51.416Z,4.93
2023-02-01T06:49:51.416Z,5.04
2023-02-01T06:50:51.391Z,4.97
2023-02-01T06:51:51.357Z,5.02
2023-02-01T06:52:52.044Z,5.10
2023-02-01T06:53:51.428Z,5.00
2023-02-01T06:54:51.352Z,5.07
2023-02-01T06:55:51.355Z,5.02
2023-02-01T06:56:51.353Z,5.04
2023-02-01T06:57:51.355Z,5.11
2023-02-01T06:58:51.368Z,5.14
2023-02-01T06:59:51.338Z,5.14
2023-02-01T07:00:51.438Z,5.10
2023-02-01T07:01:51.403Z,5.28
2023-02-01T07:02:51.352Z,5.29
2023-02-01T07:03:51.399Z,5.32
2023-02-01T07:04:51.301Z,5.30
2023-02-01T07:05:51.257Z,5.33
2023-02-01T07:06:52.273Z,5.21
2023-02-01T07:07:51.248Z,5.21
2023-02-01T07:08:52.044Z,5.18
2023-02-01T07:09:51.286Z,5.21
2023-02-01T07:10:52.196Z,5.25
2023-02-01T07:11:51.258Z,5.20
2023-02-01T07:12:51.210Z,5.18
2023-02-01T07:13:51.205Z,5.26
2023-02-01T07:14:51.275Z,5.36
2023-02-01T07:15:51.205Z,5.36
2023-02-01T07:16:51.194Z,5.38
2023-02-01T07:17:51.372Z,5.32
2023-02-01T07:18:51.188Z,5.43
2023-02-01T07:19:51.208Z,5.43
2023-02-01T07:20:51.155Z,5.50
2023-02-01T07:21:51.153Z,5.46
2023-02-01T07:22:51.152Z,5.43
2023-02-01T07:23:51.155Z,5.47
2023-02-01T07:24:51.151Z,5.41
2023-02-01T07:25:51.132Z,5.41
2023-02-01T07:26:51.179Z,5.39
2023-02-01T07:27:51.106Z,5.44
2023-02-01T07:28:51.132Z,5.43
2023-02-01T07:29:51.103Z,5.47
2023-02-01T07:30:51.102Z,5.54
2023-02-01T07:31:51.163Z,5.46
2023-02-01T07:32:51.149Z,5.48
2023-02-01T07:33:51.091Z,5.53
2023-02-01T07:34:51.125Z,5.54
2023-02-01T07:35:51.132Z,5.53
2023-02-01T07:36:51.053Z,5.65
2023-02-01T07:37:51.066Z,5.68
2023-02-01T07:38:51.043Z,5.59
2023-02-01T07:39:51.040Z,5.66
2023-02-01T07:40:51.002Z,5.64
2023-02-01T07:41:50.985Z,5.64
2023-02-01T07:42:52.000Z,5.69
2023-02-01T07:43:51.009Z,5.66
2023-02-01T07:44:50.998Z,5.62
2023-02-01T07:45:51.004Z,5.64
2023-02-01T07:46:50.990Z,5.65
2023-02-01T07:47:50.971Z,5.61
2023-02-01T07:48:50.944Z,5.66
2023-02-01T07:49:51.009Z,5.71
2023-02-01T07:50:51.079Z,5.69
2023-02-01T07:51:50.968Z,5.71
2023-02-01T07:52:51.006Z,5.79
2023-02-01T07:53:50.940Z,5.76
2023-02-01T07:54:50.928Z,5.72
2023-02-01T07:55:50.940Z,5.80
2023-02-01T07:56:50.929Z,5.83
2023-02-01T07:57:50.907Z,5.66
2023-02-01T07:58:50.943Z,5.83
2023-02-01T07:59:50.973Z,5.80
2023-02-01T08:00:50.922Z,5.79
2023-02-01T08:01:50.939Z,5.87
2023-02-01T08:02:50.842Z,5.80
2023-02-01T08:03:50.861Z,5.86
2023-02-01T08:04:50.832Z,5.71
2023-02-01T08:05:50.844Z,5.79
2023-02-01T08:06:50.845Z,5.82
2023-02-01T08:07:50.831Z,5.89
2023-02-01T08:08:50.814Z,5.87
2023-02-01T08:09:50.809Z,5.97
2023-02-01T08:10:50.779Z,5.91
2023-02-01T08:11:50.891Z,6.05
2023-02-01T08:12:50.796Z,6.01
2023-02-01T08:13:50.847Z,6.09
2023-02-01T08:14:50.778Z,6.26
2023-02-01T08:15:50.776Z,6.38
2023-02-01T08:16:50.814Z,6.44
2023-02-01T08:17:50.760Z,6.42
2023-02-01T08:18:50.733Z,6.39
2023-02-01T08:19:51.722Z,6.35
2023-02-01T08:20:50.812Z,6.41
2023-02-01T08:21:50.781Z,6.41
2023-02-01T08:22:53.158Z,6.48
2023-02-01T08:23:50.757Z,6.46
2023-02-01T08:24:50.692Z,6.41
2023-02-01T08:25:50.708Z,6.39
2023-02-01T08:26:50.778Z,6.48
2023-02-01T08:27:50.684Z,6.35
2023-02-01T08:28:50.695Z,6.36
2023-02-01T08:29:50.658Z,6.28
2023-02-01T08:30:50.677Z,6.30
2023-02-01T08:31:50.722Z,6.35
2023-02-01T08:32:50.642Z,6.27
2023-02-01T08:33:50.765Z,6.33
2023-02-01T08:34:50.633Z,6.36
2023-02-01T08:35:50.725Z,6.33
2023-02-01T08:36:50.626Z,6.17
2023-02-01T08:37:50.606Z,6.09
2023-02-01T08:38:50.626Z,6.04
2023-02-01T08:39:50.644Z,5.90
2023-02-01T08:40:50.582Z,5.90
2023-02-01T08:41:50.568Z,5.90
2023-02-01T08:42:50.575Z,5.90
2023-02-01T08:43:50.543Z,5.90
2023-02-01T08:44:50.605Z,5.86
2023-02-01T08:45:50.585Z,5.93
2023-02-01T08:46:50.535Z,5.87
2023-02-01T08:47:50.547Z,5.93
2023-02-01T08:48:50.553Z,5.93
2023-02-01T08:49:50.662Z,5.97
2023-02-01T08:51:22.405Z,6.09
2023-02-01T08:51:51.276Z,6.04
2023-02-01T08:52:50.507Z,6.02
2023-02-01T08:53:50.462Z,6.12
2023-02-01T08:54:50.480Z,6.20
2023-02-01T08:55:50.450Z,6.19
2023-02-01T08:56:50.555Z,6.24
2023-02-01T08:57:50.473Z,6.27
2023-02-01T08:58:50.447Z,6.39
2023-02-01T08:59:50.465Z,6.35
2023-02-01T09:00:50.480Z,6.30
2023-02-01T09:01:50.453Z,6.31
2023-02-01T09:02:50.437Z,6.33
2023-02-01T09:03:50.462Z,6.42
2023-02-01T09:04:50.400Z,6.46
2023-02-01T09:05:50.644Z,6.84
2023-02-01T09:06:50.406Z,6.84
2023-02-01T09:07:50.374Z,6.78
2023-02-01T09:08:50.415Z,6.54
2023-02-01T09:09:50.352Z,6.66
2023-02-01T09:10:50.392Z,6.59
2023-02-01T09:11:50.378Z,6.92
2023-02-01T09:12:50.353Z,7.05
2023-02-01T09:13:50.344Z,6.96
2023-02-01T09:14:50.338Z,6.99
2023-02-01T09:15:51.158Z,7.05
2023-02-01T09:16:50.344Z,7.00
2023-02-01T09:17:50.300Z,7.10
2023-02-01T09:18:55.946Z,6.85
2023-02-01T09:19:53.361Z,6.85
2023-02-01T09:20:50.270Z,6.81
2023-02-01T09:21:50.306Z,6.85
2023-02-01T09:22:50.259Z,6.81
2023-02-01T09:23:50.284Z,6.84
2023-02-01T09:24:50.283Z,6.85
2023-02-01T09:25:50.238Z,6.92
2023-02-01T09:26:50.313Z,6.84
2023-02-01T09:27:50.235Z,6.88
2023-02-01T09:28:50.243Z,6.89
2023-02-01T09:29:50.207Z,6.88
2023-02-01T09:30:50.274Z,6.79
2023-02-01T09:32:03.018Z,6.78
2023-02-01T09:32:52.204Z,6.82
2023-02-01T09:33:50.204Z,6.67
2023-02-01T09:34:50.184Z,6.64
2023-02-01T09:35:50.161Z,6.63
2023-02-01T09:36:50.164Z,6.64
2023-02-01T09:37:50.133Z,6.63
2023-02-01T09:38:53.531Z,6.62
2023-02-01T09:39:51.771Z,6.60
2023-02-01T09:40:50.156Z,6.56
2023-02-01T09:41:50.167Z,6.60
2023-02-01T09:42:50.114Z,6.59
2023-02-01T09:43:50.096Z,6.51
2023-02-01T09:44:50.092Z,6.51
2023-02-01T09:45:50.124Z,6.42
2023-02-01T09:46:50.057Z,6.41
2023-02-01T09:47:50.066Z,6.38
2023-02-01T09:48:50.081Z,6.57
2023-02-01T09:49:50.053Z,6.46
2023-02-01T09:50:50.048Z,6.46
2023-02-01T09:51:50.051Z,6.48
2023-02-01T09:52:50.022Z,6.54
2023-02-01T09:53:50.024Z,6.42
2023-02-01T09:54:50.024Z,6.48
2023-02-01T09:55:50.011Z,6.48
2023-02-01T09:56:50.007Z,6.49
2023-02-01T09:57:49.990Z,6.38
2023-02-01T09:58:49.995Z,6.49
2023-02-01T09:59:49.973Z,6.38
2023-02-01T10:00:49.980Z,6.41
2023-02-01T10:01:50.014Z,6.31
2023-02-01T10:02:49.964Z,6.24
2023-02-01T10:03:49.966Z,6.26
2023-02-01T10:04:49.957Z,6.39
2023-02-01T10:05:49.934Z,6.35
2023-02-01T10:06:49.965Z,6.31
2023-02-01T10:07:49.915Z,6.36
2023-02-01T10:08:49.913Z,6.27
2023-02-01T10:09:49.902Z,6.24
2023-02-01T10:10:49.980Z,6.28
2023-02-01T10:11:49.899Z,6.35
2023-02-01T10:12:49.904Z,6.30
2023-02-01T10:13:49.859Z,6.19
2023-02-01T10:14:49.906Z,6.28
2023-02-01T10:15:49.967Z,6.28
2023-02-01T10:16:49.974Z,6.41
2023-02-01T10:17:49.885Z,6.33
2023-02-01T10:18:49.827Z,6.41
2023-02-01T10:19:49.826Z,6.46
2023-02-01T10:20:49.815Z,6.38
2023-02-01T10:21:49.816Z,6.38
2023-02-01T10:23:13.780Z,6.39
2023-02-01T10:23:51.783Z,6.48
2023-02-01T10:24:49.796Z,6.44
2023-02-01T10:25:49.819Z,6.41
2023-02-01T10:26:49.845Z,6.44
2023-02-01T10:27:49.805Z,6.42
2023-02-01T10:28:49.781Z,6.51
2023-02-01T10:29:49.746Z,6.64
2023-02-01T10:30:49.841Z,6.56
2023-02-01T10:31:49.889Z,6.72
2023-02-01T10:32:49.741Z,6.77
2023-02-01T10:33:49.783Z,6.74
2023-02-01T10:34:49.753Z,6.75
2023-02-01T10:35:49.733Z,6.56
2023-02-01T10:36:49.706Z,6.60
2023-02-01T10:37:49.692Z,6.57
2023-02-01T10:38:49.723Z,6.59
2023-02-01T10:39:49.702Z,6.56
2023-02-01T10:40:49.693Z,6.54
2023-02-01T10:41:49.655Z,6.45
2023-02-01T10:42:49.675Z,6.44
2023-02-01T10:43:49.638Z,6.42
2023-02-01T10:44:49.660Z,6.42
2023-02-01T10:45:49.678Z,6.42
2023-02-01T10:46:49.613Z,6.38
2023-02-01T10:47:49.635Z,6.38
2023-02-01T10:48:49.618Z,6.41
2023-02-01T10:49:49.603Z,6.38
2023-02-01T10:50:49.625Z,6.46
2023-02-01T10:51:49.611Z,6.39
2023-02-01T10:52:49.596Z,6.44
2023-02-01T10:53:49.569Z,6.45
2023-02-01T10:54:49.599Z,6.46
2023-02-01T10:55:49.566Z,6.46
2023-02-01T10:56:49.549Z,6.45
2023-02-01T10:57:49.534Z,6.39
2023-02-01T10:58:49.553Z,6.46
2023-02-01T10:59:49.565Z,6.31
2023-02-01T11:00:49.545Z,6.39
2023-02-01T11:01:49.593Z,6.39
2023-02-01T11:02:49.565Z,6.39
2023-02-01T11:03:49.495Z,6.36
2023-02-01T11:04:49.475Z,6.42
2023-02-01T11:05:49.493Z,6.39
2023-02-01T11:06:49.502Z,6.46
2023-02-01T11:07:49.488Z,6.35
2023-02-01T11:08:49.463Z,6.45
2023-02-01T11:09:49.441Z,6.44
2023-02-01T11:10:49.430Z,6.48
2023-02-01T11:11:49.447Z,6.44
2023-02-01T11:12:49.452Z,6.56
2023-02-01T11:13:50.249Z,6.48
2023-02-01T11:14:49.425Z,6.56
2023-02-01T11:15:49.431Z,6.52
2023-02-01T11:16:49.394Z,6.54
2023-02-01T11:17:49.421Z,6.52
2023-02-01T11:18:49.409Z,6.54
2023-02-01T11:19:49.350Z,6.57
2023-02-01T11:20:49.352Z,6.56
2023-02-01T11:21:49.353Z,6.59
2023-02-01T11:22:49.399Z,6.54
2023-02-01T11:23:49.338Z,6.54
2023-02-01T11:24:49.338Z,6.56
2023-02-01T11:25:49.336Z,6.54
2023-02-01T11:26:49.353Z,6.49
2023-02-01T11:27:54.657Z,6.48
2023-02-01T11:28:51.355Z,6.52
2023-02-01T11:29:49.286Z,6.51
2023-02-01T11:30:49.309Z,6.44
2023-02-01T11:31:49.282Z,6.42
2023-02-01T11:32:49.273Z,6.60
2023-02-01T11:33:49.273Z,6.54
2023-02-01T11:34:49.271Z,6.62
2023-02-01T11:35:49.287Z,6.54
2023-02-01T11:36:49.271Z,6.57
2023-02-01T11:37:49.237Z,6.54
2023-02-01T11:38:49.237Z,6.54
2023-02-01T11:39:49.222Z,6.56
2023-02-01T11:40:49.230Z,6.59
2023-02-01T11:41:49.187Z,6.57
2023-02-01T11:42:49.186Z,6.51
2023-02-01T11:43:49.188Z,6.63
2023-02-01T11:44:50.097Z,6.62
2023-02-01T11:45:49.180Z,6.59
2023-02-01T11:46:49.792Z,6.60
2023-02-01T11:47:49.153Z,6.72
2023-02-01T11:48:49.140Z,6.60
2023-02-01T11:49:49.134Z,6.56
2023-02-01T11:50:49.159Z,6.56
2023-02-01T11:51:49.115Z,6.60
2023-02-01T11:52:49.203Z,6.69
2023-02-01T11:53:49.126Z,6.64
2023-02-01T11:54:49.130Z,6.78
2023-02-01T11:55:49.127Z,6.70
2023-02-01T11:56:49.086Z,6.79
2023-02-01T11:57:49.096Z,6.84
2023-02-01T11:58:49.143Z,6.85
2023-02-01T11:59:56.325Z,6.77
2023-02-01T12:00:51.053Z,6.72
2023-02-01T12:01:49.176Z,6.77
2023-02-01T12:02:49.108Z,6.84
2023-02-01T12:03:49.056Z,6.81
2023-02-01T12:04:49.032Z,6.85
2023-02-01T12:05:49.023Z,6.88
2023-02-01T12:06:49.077Z,6.93
2023-02-01T12:07:49.021Z,6.92
2023-02-01T12:08:49.027Z,6.81
2023-02-01T12:09:48.988Z,6.84
2023-02-01T12:10:48.988Z,6.84
2023-02-01T12:11:48.977Z,6.85
2023-02-01T12:12:48.963Z,6.88
2023-02-01T12:13:48.978Z,6.82
2023-02-01T12:14:48.960Z,6.87
2023-02-01T12:15:48.959Z,6.92
2023-02-01T12:16:48.983Z,6.82
2023-02-01T12:17:48.919Z,6.88
2023-02-01T12:18:48.925Z,6.70
2023-02-01T12:19:48.893Z,6.74
2023-02-01T12:20:48.905Z,6.85
2023-02-01T12:21:48.889Z,6.95
2023-02-01T12:22:48.904Z,6.92
2023-02-01T12:23:48.920Z,6.96
2023-02-01T12:24:48.889Z,7.03
2023-02-01T12:25:48.851Z,7.07
2023-02-01T12:26:48.973Z,7.03
2023-02-01T12:27:48.850Z,7.07
2023-02-01T12:28:48.830Z,7.05
2023-02-01T12:29:48.851Z,7.02
2023-02-01T12:30:48.849Z,7.07
2023-02-01T12:31:49.929Z,7.14
2023-02-01T12:32:48.796Z,7.02
2023-02-01T12:33:48.830Z,6.99
2023-02-01T12:34:48.808Z,7.10
2023-02-01T12:35:48.782Z,7.06
2023-02-01T12:36:48.840Z,7.11
2023-02-01T12:37:48.827Z,6.99
2023-02-01T12:38:48.764Z,7.00
2023-02-01T12:39:48.766Z,6.97
2023-02-01T12:40:48.738Z,6.96
2023-02-01T12:41:48.762Z,7.07
2023-02-01T12:42:48.725Z,7.00
2023-02-01T12:43:48.737Z,6.97
2023-02-01T12:44:48.737Z,6.85
2023-02-01T12:45:48.780Z,6.92
2023-02-01T12:46:49.663Z,7.00
2023-02-01T12:47:48.710Z,6.84
2023-02-01T12:48:48.815Z,6.84
2023-02-01T12:49:48.719Z,6.92
2023-02-01T12:50:48.695Z,6.96
2023-02-01T12:51:48.649Z,6.99
2023-02-01T12:52:48.655Z,6.93
2023-02-01T12:53:48.657Z,6.92
2023-02-01T12:54:48.640Z,6.97
2023-02-01T12:55:50.572Z,6.89
2023-02-01T12:56:50.197Z,6.85
2023-02-01T12:57:48.627Z,6.88
2023-02-01T12:58:48.591Z,6.89
2023-02-01T12:59:48.620Z,6.92
2023-02-01T13:00:48.661Z,6.99
2023-02-01T13:01:48.599Z,6.85
2023-02-01T13:02:48.609Z,6.85
2023-02-01T13:03:48.572Z,6.88
2023-02-01T13:04:48.581Z,6.84
2023-02-01T13:05:48.573Z,6.84
2023-02-01T13:06:48.538Z,6.89
2023-02-01T13:07:48.567Z,6.89
2023-02-01T13:08:48.542Z,6.95
2023-02-01T13:09:48.539Z,6.84
2023-02-01T13:10:48.540Z,6.78
2023-02-01T13:11:48.553Z,6.87
2023-02-01T13:12:48.502Z,6.78
2023-02-01T13:13:49.528Z,6.79
2023-02-01T13:14:48.488Z,6.81
2023-02-01T13:15:48.483Z,6.84
2023-02-01T13:16:48.555Z,6.85
2023-02-01T13:17:48.501Z,6.78
2023-02-01T13:18:48.455Z,6.81
2023-02-01T13:19:48.566Z,6.82
2023-02-01T13:20:48.432Z,6.78
2023-02-01T13:21:48.464Z,6.85
2023-02-01T13:22:48.492Z,6.89
2023-02-01T13:23:48.415Z,6.96
2023-02-01T13:24:48.422Z,7.13
2023-02-01T13:25:48.414Z,7.21
2023-02-01T13:26:48.434Z,7.24
2023-02-01T13:27:48.398Z,7.36
2023-02-01T13:28:48.394Z,7.39
2023-02-01T13:29:48.386Z,7.38
2023-02-01T13:30:48.462Z,7.51
2023-02-01T13:31:48.471Z,7.53
2023-02-01T13:33:18.180Z,7.45
2023-02-01T13:33:53.308Z,7.54
2023-02-01T13:34:49.354Z,7.40
2023-02-01T13:35:48.380Z,7.36